Historyczne dane pomiarowe

Dodano dane terminowe – wersja testowa.

Dane z okresu 1951-2018

Wersja bazy: 1.27 [2018-11-28, lista zmian], aktualizacja planowana na 2018-12-07

Dane meteo z obszaru Polski uzyskane na podstawie danych udostępnionych przez Instytut Meteorologii i Gospodarki Wodnej – Państwowy Instytut Badawczy.

 

Wybierz Datę:    

       

TemperaturaWilgotnośćWiatrCiśnienieOpadyŚniegCzas trwania zjawisk
 Stacja t tx tn tng RH VA  wxwx mslp ppp RRR   cm mm wxwxwxwxwxwxwx
1978-11-08 3.1 6.3 0.0 -0.6 93.8- 8.0 0.7---- 0.0------------
1978-11-09 1.6 3.2 1.2 1.0 91.3- 8.0 0.0---- 0.0------------
1978-11-10 0.3 1.3 -0.9 -0.4 94.5- 8.0 0.3---- 0.0------------
1978-11-11 -0.7 0.1 -1.0 -1.1 91.0- 8.0 0.0---- 0.0------------
1978-11-12 -1.8 -0.6 -2.6 -2.7 92.8- 8.0 0.0---- 0.0------------
1978-11-13 -2.6 -1.6 -3.0 -3.1 92.0- 8.0 0.0---- 0.0------------
1978-11-14 -1.7 3.2 -3.9 -4.0 89.0- 5.7 0.3---- 0.0------------
1978-11-15 -1.2 0.2 -2.1 -2.3 93.3- 8.0 1.0---- 0.0------------
1978-11-16 -1.5 -0.1 -2.8 -5.1 90.0- 7.3 0.3---- 0.2------------
1978-11-17 0.4 7.8 -2.5 -5.8 82.3- 0.3 0.7---- 0.0------------
1978-11-18 -1.0 0.7 -3.1 -6.7 91.0- 7.7 0.0---- 0.0------------
1978-11-19 0.0 2.2 -0.9 -1.4 86.5- 6.3 0.3---- 0.0------------
1978-11-20 -2.6 0.2 -5.8 -9.1 90.5- 5.3 0.7---- 0.0------------
1978-11-21 0.4 3.7 -2.2 -2.6 90.0- 7.7 0.7---- 0.0------------
1978-11-22 1.1 3.4 -0.3 -0.6 89.3- 7.3 0.3---- 0.0------------
1978-11-23 1.3 2.7 0.4 0.3 94.3- 8.0 0.3---- 0.2------------
1978-11-24 1.7 2.4 0.8 -1.4 96.5- 8.0 0.0---- 0.0------------
1978-11-25 1.0 2.4 -1.0 -3.1 95.5- 5.3 0.0---- 0.0------------
1978-11-26 -1.2 -0.3 -2.6 -6.1 91.3- 8.0 0.0---- 0.0------------
1978-11-27 0.4 4.1 -2.3 -2.1 88.8- 8.0 0.3---- 9.5------------
1978-11-28 -0.7 1.5 -1.0 -1.5 94.5- 8.0 0.7---- 3.8-- 6---------
1978-11-29 -1.9 -0.7 -3.6 -4.0 93.0- 6.0 1.0---- 4.9-- 10---------
1978-11-30 -2.3 0.3 -6.5-13.3 95.0- 8.0 0.7---- 7.9-- 14---------
1978-12-01 0.6 1.3 0.1 -0.7 95.8- 8.0 0.3---- 1.3-- 22---------
1978-12-02 0.4 1.2 0.1 -0.5 94.5- 8.0 0.3---- 0.5-- 18---------
1978-12-03 -2.3 0.1 -3.9 -3.9 81.8- 8.0 1.0---- 0.0-- 10---------
1978-12-04-13.4 -3.8-16.1-24.6 77.5- 3.0 1.0---- 0.0-- 10---------
1978-12-05-14.4 -9.0-20.3-27.6 81.5- 5.3 0.7---- 0.2-- 9---------
1978-12-06-10.2 -7.2-16.9-24.1 77.3- 4.0 0.0---- 0.0-- 9---------
1978-12-07-19.1-12.4-23.9-28.7 81.8- 2.3 0.0---- 0.0-- 9---------
178.4 ms

 

Źródłem pochodzenia danych jest Instytut Meteorologii i Gospodarki Wodnej – Państwowy Instytut Badawczy. Dane Instytutu Meteorologii i Gospodarki Wodnej – Państwowego Instytutu Badawczego zostały przetworzone.

Dane źródłowe można odnaleźć na stronie https://dane.imgw.pl